createdAt,value
2018-11-23T00:00:15.994Z,96.63
2018-11-23T00:02:45.782Z,96.12
2018-11-23T00:05:14.350Z,96.02
2018-11-23T00:07:43.352Z,96.82
2018-11-23T00:10:13.941Z,96.61
2018-11-23T00:12:42.899Z,95.91
2018-11-23T00:15:16.423Z,96.53
2018-11-23T00:17:45.036Z,96.47
2018-11-23T00:20:24.601Z,96.58
2018-11-23T00:22:53.251Z,96.59
2018-11-23T00:25:23.385Z,96.16
2018-11-23T00:27:52.363Z,95.35
2018-11-23T00:30:22.141Z,96.28
2018-11-23T00:32:51.266Z,95.38
2018-11-23T00:35:21.678Z,96.26
2018-11-23T00:37:51.124Z,95.94
2018-11-23T00:40:21.922Z,95.68
2018-11-23T00:42:51.098Z,95.55
2018-11-23T00:45:19.856Z,95.79
2018-11-23T00:47:50.154Z,95.05
2018-11-23T00:50:19.891Z,95.35
2018-11-23T00:52:48.836Z,95.68
2018-11-23T00:55:18.718Z,95.13
2018-11-23T00:57:47.362Z,95.46
2018-11-23T01:00:19.727Z,95.76
2018-11-23T01:02:48.424Z,95.12
2018-11-23T01:05:18.946Z,96.10
2018-11-23T01:07:48.999Z,95.32
2018-11-23T01:10:18.995Z,95.62
2018-11-23T01:12:48.862Z,95.77
2018-11-23T01:15:23.103Z,95.87
2018-11-23T01:17:51.774Z,95.70
2018-11-23T01:20:27.433Z,95.82
2018-11-23T01:22:56.853Z,95.79
2018-11-23T01:25:26.413Z,95.22
2018-11-23T01:27:55.677Z,96.00
2018-11-23T01:30:26.680Z,95.07
2018-11-23T01:32:55.158Z,95.01
2018-11-23T01:35:23.774Z,95.08
2018-11-23T01:37:53.519Z,95.32
2018-11-23T01:40:23.432Z,95.04
2018-11-23T01:42:52.643Z,95.22
2018-11-23T01:45:21.238Z,94.99
2018-11-23T01:47:50.786Z,95.50
2018-11-23T01:50:23.848Z,95.34
2018-11-23T01:52:52.788Z,95.46
2018-11-23T01:55:22.259Z,94.59
2018-11-23T01:57:50.863Z,95.09
2018-11-23T02:00:21.829Z,95.76
2018-11-23T02:02:51.187Z,95.19
2018-11-23T02:05:19.856Z,95.47
2018-11-23T02:07:48.546Z,95.72
2018-11-23T02:10:17.856Z,95.73
2018-11-23T02:12:46.454Z,95.39
2018-11-23T02:15:17.087Z,95.43
2018-11-23T02:17:46.086Z,95.28
2018-11-23T02:20:15.920Z,95.57
2018-11-23T02:22:46.305Z,95.11
2018-11-23T02:25:15.071Z,94.92
2018-11-23T02:27:43.600Z,95.58
2018-11-23T02:30:16.662Z,95.43
2018-11-23T02:32:45.434Z,95.06
2018-11-23T02:35:14.798Z,94.67
2018-11-23T02:37:43.410Z,95.15
2018-11-23T02:40:13.099Z,95.58
2018-11-23T02:42:42.140Z,95.66
2018-11-23T02:45:13.227Z,95.05
2018-11-23T02:47:42.684Z,95.63
2018-11-23T02:50:11.295Z,94.84
2018-11-23T02:52:40.622Z,95.49
2018-11-23T02:55:10.405Z,95.43
2018-11-23T02:57:39.745Z,95.80
2018-11-23T03:00:11.755Z,95.12
2018-11-23T03:02:40.530Z,95.81
2018-11-23T03:05:10.896Z,95.85
2018-11-23T03:07:39.663Z,95.47
2018-11-23T03:10:09.477Z,95.59
2018-11-23T03:12:38.542Z,95.68
2018-11-23T03:15:09.842Z,95.70
2018-11-23T03:17:38.558Z,95.40
2018-11-23T03:20:09.468Z,95.81
2018-11-23T03:23:41.327Z,95.49
2018-11-23T03:26:09.948Z,96.07
2018-11-23T03:28:38.498Z,96.56
2018-11-23T03:31:12.188Z,96.63
2018-11-23T03:33:35.719Z,95.91
2018-11-23T03:36:05.584Z,95.93
2018-11-23T03:38:34.289Z,95.98
2018-11-23T03:41:02.954Z,96.00
2018-11-23T03:43:31.535Z,96.58
2018-11-23T03:46:00.122Z,95.97
2018-11-23T03:48:28.744Z,96.09
2018-11-23T03:50:57.246Z,95.96
2018-11-23T03:53:25.869Z,96.07
2018-11-23T03:55:54.527Z,96.63
2018-11-23T03:58:23.194Z,96.72
2018-11-23T04:00:51.857Z,96.18
2018-11-23T04:03:20.782Z,96.72
2018-11-23T04:05:49.456Z,96.69
2018-11-23T04:08:18.010Z,96.49
2018-11-23T04:10:48.811Z,96.58
2018-11-23T04:13:17.953Z,96.54
2018-11-23T04:15:46.575Z,95.86
2018-11-23T04:18:15.271Z,95.85
2018-11-23T04:21:15.659Z,96.11
2018-11-23T04:23:44.252Z,96.50
2018-11-23T04:26:12.964Z,96.42
2018-11-23T04:28:41.477Z,95.91
2018-11-23T04:31:10.175Z,96.75
2018-11-23T04:33:38.741Z,96.45
2018-11-23T04:36:07.450Z,95.74
2018-11-23T04:38:36.195Z,95.46
2018-11-23T04:41:04.974Z,96.25
2018-11-23T04:43:33.588Z,95.88
2018-11-23T04:46:02.211Z,95.76
2018-11-23T04:48:30.843Z,96.09
2018-11-23T04:50:59.594Z,96.15
2018-11-23T04:53:28.160Z,96.33
2018-11-23T04:55:56.964Z,96.59
2018-11-23T04:58:25.541Z,96.54
2018-11-23T05:00:55.106Z,96.52
2018-11-23T05:03:23.701Z,96.51
2018-11-23T05:05:53.247Z,96.55
2018-11-23T05:08:21.893Z,96.12
2018-11-23T05:10:50.443Z,96.14
2018-11-23T05:13:19.115Z,96.27
2018-11-23T05:15:47.679Z,95.99
2018-11-23T05:18:16.413Z,95.75
2018-11-23T05:20:45.386Z,95.42
2018-11-23T05:23:13.899Z,95.73
2018-11-23T05:25:42.663Z,95.99
2018-11-23T05:28:11.501Z,96.21
2018-11-23T05:30:39.983Z,95.59
2018-11-23T05:33:08.525Z,95.57
2018-11-23T05:35:37.055Z,95.44
2018-11-23T05:38:05.718Z,95.40
2018-11-23T05:40:34.343Z,96.03
2018-11-23T05:43:04.442Z,95.58
2018-11-23T05:45:32.236Z,95.71
2018-11-23T05:48:01.003Z,95.43
2018-11-23T05:50:29.559Z,95.42
2018-11-23T05:52:59.722Z,95.38
2018-11-23T05:55:29.319Z,95.81
2018-11-23T05:57:57.953Z,95.79
2018-11-23T06:00:28.043Z,95.74
2018-11-23T06:02:56.782Z,96.15
2018-11-23T06:05:26.401Z,95.72
2018-11-23T06:07:55.008Z,96.05
2018-11-23T06:10:23.758Z,96.00
2018-11-23T06:12:52.540Z,96.28
2018-11-23T06:15:23.479Z,96.02
2018-11-23T06:17:52.272Z,96.14
2018-11-23T06:20:23.467Z,95.88
2018-11-23T06:22:52.828Z,96.26
2018-11-23T06:25:37.221Z,96.25
2018-11-23T06:28:06.234Z,96.21
2018-11-23T06:30:34.771Z,96.49
2018-11-23T06:33:15.185Z,96.51
2018-11-23T06:35:43.776Z,96.32
2018-11-23T06:38:12.458Z,96.17
2018-11-23T06:40:40.935Z,96.17
2018-11-23T06:43:09.446Z,96.08
2018-11-23T06:45:41.052Z,95.91
2018-11-23T06:48:10.643Z,95.99
2018-11-23T06:50:39.801Z,96.10
2018-11-23T06:53:08.563Z,96.11
2018-11-23T06:55:37.206Z,95.76
2018-11-23T06:58:06.195Z,96.25
2018-11-23T07:00:35.047Z,96.35
2018-11-23T07:03:03.646Z,95.87
2018-11-23T07:05:32.385Z,95.68
2018-11-23T07:08:01.061Z,95.85
2018-11-23T07:10:30.046Z,95.80
2018-11-23T07:12:58.694Z,95.30
2018-11-23T07:15:27.282Z,95.24
2018-11-23T07:17:55.827Z,95.26
2018-11-23T07:20:24.492Z,95.43
2018-11-23T07:22:53.095Z,95.76
2018-11-23T07:25:21.809Z,95.41
2018-11-23T07:27:50.688Z,95.35
2018-11-23T07:30:27.139Z,95.30
2018-11-23T07:32:56.030Z,95.04
2018-11-23T07:35:24.829Z,94.89
2018-11-23T07:37:53.543Z,94.82
2018-11-23T07:40:36.110Z,94.73
2018-11-23T07:43:05.745Z,94.78
2018-11-23T07:45:34.427Z,94.77
2018-11-23T07:48:03.135Z,94.49
2018-11-23T07:50:31.843Z,94.17
2018-11-23T07:53:00.784Z,94.08
2018-11-23T07:55:29.487Z,94.06
2018-11-23T07:57:58.124Z,93.78
2018-11-23T08:00:27.596Z,93.56
2018-11-23T08:02:56.296Z,93.64
2018-11-23T08:05:25.295Z,93.86
2018-11-23T08:07:53.943Z,93.61
2018-11-23T08:10:21.615Z,93.41
2018-11-23T08:12:50.971Z,93.45
2018-11-23T08:15:21.953Z,93.09
2018-11-23T08:17:50.736Z,92.79
2018-11-23T08:20:20.738Z,92.65
2018-11-23T08:22:49.351Z,92.74
2018-11-23T08:25:19.242Z,92.47
2018-11-23T08:27:48.891Z,92.40
2018-11-23T08:30:22.279Z,92.35
2018-11-23T08:32:50.805Z,91.98
2018-11-23T08:35:19.366Z,91.83
2018-11-23T08:37:48.028Z,92.46
2018-11-23T08:40:19.891Z,91.93
2018-11-23T08:42:49.318Z,91.28
2018-11-23T08:45:19.640Z,91.06
2018-11-23T08:47:48.459Z,91.45
2018-11-23T08:50:20.458Z,91.41
2018-11-23T08:52:49.971Z,91.13
2018-11-23T08:55:19.153Z,92.06
2018-11-23T08:57:47.778Z,91.71
2018-11-23T09:00:19.034Z,91.33
2018-11-23T09:02:48.798Z,90.62
2018-11-23T09:05:17.970Z,90.67
2018-11-23T09:07:47.615Z,90.44
2018-11-23T09:10:18.134Z,90.61
2018-11-23T09:12:49.432Z,90.79
2018-11-23T09:15:18.275Z,90.41
2018-11-23T09:17:47.129Z,90.68
2018-11-23T09:20:17.476Z,90.30
2018-11-23T09:22:46.110Z,90.09
2018-11-23T09:25:16.167Z,90.64
2018-11-23T09:27:45.008Z,90.28
2018-11-23T09:30:16.860Z,89.88
2018-11-23T09:32:46.134Z,90.17
2018-11-23T09:35:14.930Z,90.31
2018-11-23T09:37:44.521Z,89.59
2018-11-23T09:40:15.339Z,89.40
2018-11-23T09:42:44.053Z,89.16
2018-11-23T09:45:15.491Z,88.83
2018-11-23T09:47:44.981Z,89.03
2018-11-23T09:50:15.257Z,88.71
2018-11-23T09:52:44.536Z,88.47
2018-11-23T09:55:13.236Z,88.29
2018-11-23T09:57:41.989Z,88.27
2018-11-23T10:00:14.110Z,87.98
2018-11-23T10:02:43.124Z,88.11
2018-11-23T10:05:12.700Z,88.04
2018-11-23T10:07:41.946Z,88.08
2018-11-23T10:10:11.762Z,88.18
2018-11-23T10:12:40.638Z,88.26
2018-11-23T10:15:10.879Z,88.30
2018-11-23T10:17:39.516Z,88.46
2018-11-23T10:20:10.384Z,88.55
2018-11-23T10:22:39.133Z,88.56
2018-11-23T10:25:09.426Z,88.20
2018-11-23T10:27:38.487Z,88.17
2018-11-23T10:30:09.437Z,87.73
2018-11-23T10:32:38.043Z,87.97
2018-11-23T10:35:08.321Z,87.83
2018-11-23T10:37:37.394Z,87.76
2018-11-23T10:40:08.740Z,88.06
2018-11-23T10:42:37.372Z,88.19
2018-11-23T10:45:08.879Z,87.67
2018-11-23T10:47:37.703Z,87.82
2018-11-23T10:50:10.729Z,87.84
2018-11-23T10:52:39.592Z,87.82
2018-11-23T10:55:11.648Z,87.83
2018-11-23T10:57:40.447Z,87.33
2018-11-23T11:00:16.571Z,87.90
2018-11-23T11:02:46.643Z,86.61
2018-11-23T11:05:20.625Z,87.21
2018-11-23T11:07:49.290Z,87.42
2018-11-23T11:10:18.034Z,87.66
2018-11-23T11:12:46.775Z,87.78
2018-11-23T11:15:15.883Z,87.78
2018-11-23T11:17:44.421Z,86.52
2018-11-23T11:20:13.187Z,86.44
2018-11-23T11:22:41.684Z,86.48
2018-11-23T11:25:11.286Z,86.60
2018-11-23T11:27:40.407Z,85.86
2018-11-23T11:30:11.675Z,85.45
2018-11-23T11:32:40.487Z,85.65
2018-11-23T11:35:10.098Z,85.45
2018-11-23T11:37:38.936Z,85.94
2018-11-23T11:40:09.590Z,85.32
2018-11-23T11:42:39.449Z,85.45
2018-11-23T11:45:10.082Z,84.20
2018-11-23T11:47:38.816Z,83.76
2018-11-23T11:50:09.387Z,83.31
2018-11-23T11:52:39.600Z,81.79
2018-11-23T11:55:10.164Z,80.59
2018-11-23T11:57:38.715Z,79.98
2018-11-23T12:00:09.790Z,78.29
2018-11-23T12:02:38.339Z,76.62
2018-11-23T12:05:08.218Z,75.12
2018-11-23T12:07:36.761Z,74.32
2018-11-23T12:10:07.174Z,73.38
2018-11-23T12:12:35.729Z,73.83
2018-11-23T12:15:04.387Z,73.19
2018-11-23T12:17:33.785Z,72.04
2018-11-23T12:20:02.380Z,71.73
2018-11-23T12:22:31.061Z,70.57
2018-11-23T12:24:59.703Z,70.63
2018-11-23T12:27:29.506Z,68.84
2018-11-23T12:29:57.510Z,68.05
2018-11-23T12:32:27.275Z,67.30
2018-11-23T12:34:55.824Z,66.18
2018-11-23T12:37:25.030Z,65.51
2018-11-23T12:39:53.452Z,65.71
2018-11-23T12:42:22.265Z,64.49
2018-11-23T12:44:50.827Z,63.93
2018-11-23T12:47:19.771Z,63.96
2018-11-23T12:49:48.365Z,63.82
2018-11-23T12:52:17.088Z,63.77
2018-11-23T12:54:45.734Z,62.98
2018-11-23T12:57:14.419Z,62.75
2018-11-23T12:59:43.003Z,62.48
2018-11-23T13:02:11.729Z,63.08
2018-11-23T13:04:40.412Z,63.89
2018-11-23T13:07:09.191Z,64.67
2018-11-23T13:09:39.987Z,64.97
2018-11-23T13:12:09.605Z,64.82
2018-11-23T13:14:38.056Z,65.76
2018-11-23T13:17:07.490Z,66.72
2018-11-23T13:19:36.181Z,68.81
2018-11-23T13:22:04.815Z,70.78
2018-11-23T13:24:33.431Z,73.13
2018-11-23T13:27:02.074Z,74.16
2018-11-23T13:29:30.916Z,75.58
2018-11-23T13:32:00.223Z,76.30
2018-11-23T13:34:28.280Z,77.03
2018-11-23T13:36:56.905Z,77.34
2018-11-23T13:39:25.526Z,78.01
2018-11-23T13:41:54.228Z,78.44
2018-11-23T13:44:22.735Z,78.43
2018-11-23T13:46:51.528Z,79.34
2018-11-23T13:49:20.168Z,79.81
2018-11-23T13:51:48.690Z,80.34
2018-11-23T13:54:17.903Z,80.09
2018-11-23T13:56:46.712Z,80.94
2018-11-23T13:59:16.232Z,81.67
2018-11-23T14:01:45.408Z,81.92
2018-11-23T14:04:14.404Z,82.49
2018-11-23T14:06:43.015Z,83.64
2018-11-23T14:09:12.332Z,84.67
2018-11-23T14:11:42.098Z,84.72
2018-11-23T14:14:11.509Z,85.59
2018-11-23T14:16:40.194Z,85.15
2018-11-23T14:19:08.850Z,86.65
2018-11-23T14:21:37.772Z,86.46
2018-11-23T14:24:06.768Z,87.68
2018-11-23T14:26:35.769Z,87.40
2018-11-23T14:29:06.190Z,88.23
2018-11-23T14:31:36.662Z,88.96
2018-11-23T14:34:05.802Z,89.52
2018-11-23T14:36:35.507Z,89.21
2018-11-23T14:39:05.937Z,90.12
2018-11-23T14:41:34.584Z,90.30
2018-11-23T14:44:07.001Z,90.83
2018-11-23T14:46:32.732Z,90.22
2018-11-23T14:49:01.359Z,90.23
2018-11-23T14:51:29.924Z,91.43
2018-11-23T14:53:58.564Z,90.93
2018-11-23T14:56:27.331Z,91.12
2018-11-23T14:58:55.909Z,91.64
2018-11-23T15:01:25.154Z,91.90
2018-11-23T15:03:53.870Z,92.38
2018-11-23T15:06:22.591Z,92.33
2018-11-23T15:08:51.120Z,92.97
2018-11-23T15:11:20.099Z,93.53
2018-11-23T15:13:48.811Z,93.84
2018-11-23T15:16:17.562Z,94.24
2018-11-23T15:18:46.551Z,94.43
2018-11-23T15:21:15.244Z,94.47
2018-11-23T15:23:43.780Z,94.38
2018-11-23T15:26:12.314Z,94.65
2018-11-23T15:28:40.840Z,94.69
2018-11-23T15:31:09.424Z,93.82
2018-11-23T15:33:40.093Z,94.52
2018-11-23T15:36:09.679Z,94.48
2018-11-23T15:38:38.367Z,94.59
2018-11-23T15:41:06.969Z,95.26
2018-11-23T15:43:35.681Z,94.47
2018-11-23T15:46:04.371Z,94.53
2018-11-23T15:48:33.040Z,94.49
2018-11-23T15:51:06.871Z,94.38
2018-11-23T15:53:35.851Z,94.58
2018-11-23T15:56:04.706Z,94.37
2018-11-23T15:58:33.401Z,94.16
2018-11-23T16:01:02.160Z,94.73
2018-11-23T16:03:30.956Z,94.44
2018-11-23T16:05:59.535Z,94.55
2018-11-23T16:08:28.159Z,95.11
2018-11-23T16:10:56.697Z,95.79
2018-11-23T16:13:25.377Z,95.44
2018-11-23T16:15:54.011Z,95.57
2018-11-23T16:18:22.508Z,95.75
2018-11-23T16:20:51.002Z,96.10
2018-11-23T16:23:21.091Z,96.29
2018-11-23T16:25:50.371Z,96.55
2018-11-23T16:28:19.089Z,96.64
2018-11-23T16:30:49.169Z,96.81
2018-11-23T16:33:19.430Z,97.89
2018-11-23T16:35:48.853Z,98.93
2018-11-23T16:38:18.992Z,99.41
2018-11-23T16:40:49.421Z,99.98
2018-11-23T16:43:18.147Z,100.00
2018-11-23T16:45:47.407Z,100.00
2018-11-23T16:48:18.390Z,100.00
2018-11-23T16:50:49.017Z,100.00
2018-11-23T16:53:18.537Z,100.00
2018-11-23T16:55:47.368Z,100.00
2018-11-23T16:58:16.316Z,100.00
2018-11-23T17:00:46.404Z,100.00
2018-11-23T17:03:17.715Z,100.00
2018-11-23T17:05:48.138Z,100.00
2018-11-23T17:08:18.394Z,100.00
2018-11-23T17:10:47.070Z,100.00
2018-11-23T17:13:16.451Z,100.00
2018-11-23T17:15:45.023Z,100.00
2018-11-23T17:18:13.751Z,100.00
2018-11-23T17:20:42.785Z,100.00
2018-11-23T17:23:12.479Z,100.00
2018-11-23T17:25:41.019Z,100.00
2018-11-23T17:28:10.894Z,100.00
2018-11-23T17:30:39.728Z,100.00
2018-11-23T17:33:08.702Z,100.00
2018-11-23T17:35:37.586Z,100.00
2018-11-23T17:38:06.593Z,100.00
2018-11-23T17:40:37.010Z,100.00
2018-11-23T17:43:06.045Z,100.00
2018-11-23T17:45:36.000Z,100.00
2018-11-23T17:48:04.692Z,100.00
2018-11-23T17:50:34.831Z,100.00
2018-11-23T17:53:03.484Z,100.00
2018-11-23T17:55:32.317Z,100.00
2018-11-23T17:58:01.717Z,100.00
2018-11-23T18:00:38.532Z,99.94
2018-11-23T18:03:01.826Z,100.00
2018-11-23T18:05:32.126Z,100.00
2018-11-23T18:08:01.470Z,100.00
2018-11-23T18:10:31.419Z,100.00
2018-11-23T18:13:00.708Z,99.84
2018-11-23T18:15:31.265Z,99.74
2018-11-23T18:18:00.922Z,99.61
2018-11-23T18:20:30.344Z,99.94
2018-11-23T18:22:59.680Z,99.41
2018-11-23T18:25:37.196Z,99.39
2018-11-23T18:28:06.392Z,99.18
2018-11-23T18:30:35.553Z,99.48
2018-11-23T18:33:06.637Z,99.15
2018-11-23T18:35:35.477Z,99.22
2018-11-23T18:38:04.085Z,99.31
2018-11-23T18:40:37.302Z,99.01
2018-11-23T18:43:01.927Z,99.31
2018-11-23T18:45:30.816Z,99.38
2018-11-23T18:48:00.465Z,99.34
2018-11-23T18:50:29.163Z,98.82
2018-11-23T18:52:58.050Z,99.26
2018-11-23T18:55:26.672Z,99.42
2018-11-23T18:57:55.306Z,99.37
2018-11-23T19:00:23.995Z,99.48
2018-11-23T19:02:52.682Z,99.73
2018-11-23T19:05:23.197Z,99.97
2018-11-23T19:07:51.876Z,99.66
2018-11-23T19:10:20.636Z,99.72
2018-11-23T19:12:49.262Z,99.48
2018-11-23T19:15:25.355Z,99.51
2018-11-23T19:17:47.659Z,99.44
2018-11-23T19:20:20.019Z,99.87
2018-11-23T19:22:49.977Z,99.70
2018-11-23T19:25:18.694Z,99.75
2018-11-23T19:27:47.350Z,99.81
2018-11-23T19:30:18.345Z,99.80
2018-11-23T19:32:47.272Z,99.70
2018-11-23T19:35:16.065Z,99.55
2018-11-23T19:37:44.589Z,100.00
2018-11-23T19:40:17.091Z,99.81
2018-11-23T19:42:47.970Z,99.66
2018-11-23T19:45:17.672Z,99.76
2018-11-23T19:47:46.367Z,99.61
2018-11-23T19:50:18.138Z,100.00
2018-11-23T19:52:48.007Z,99.84
2018-11-23T19:55:18.006Z,99.64
2018-11-23T19:57:47.254Z,99.49
2018-11-23T20:00:19.766Z,99.29
2018-11-23T20:02:48.554Z,99.60
2018-11-23T20:05:17.474Z,99.24
2018-11-23T20:07:47.182Z,99.42
2018-11-23T20:10:18.893Z,98.81
2018-11-23T20:12:48.553Z,99.38
2018-11-23T20:15:18.616Z,99.26
2018-11-23T20:17:47.682Z,99.02
2018-11-23T20:20:17.116Z,99.06
2018-11-23T20:22:47.061Z,99.13
2018-11-23T20:25:18.515Z,99.19
2018-11-23T20:27:47.961Z,98.80
2018-11-23T20:30:18.715Z,98.71
2018-11-23T20:32:47.602Z,98.64
2018-11-23T20:35:18.302Z,99.15
2018-11-23T20:37:47.293Z,99.29
2018-11-23T20:40:17.127Z,99.47
2018-11-23T20:42:46.126Z,99.40
2018-11-23T20:45:14.895Z,99.41
2018-11-23T20:47:43.441Z,99.66
2018-11-23T20:50:13.309Z,100.00
2018-11-23T20:52:42.673Z,100.00
2018-11-23T20:55:14.574Z,100.00
2018-11-23T20:57:43.327Z,100.00
2018-11-23T21:00:17.910Z,100.00
2018-11-23T21:02:47.788Z,99.96
2018-11-23T21:05:17.914Z,99.69
2018-11-23T21:07:46.471Z,99.98
2018-11-23T21:10:20.255Z,99.73
2018-11-23T21:12:46.875Z,99.62
2018-11-23T21:15:29.393Z,99.58
2018-11-23T21:17:59.506Z,99.43
2018-11-23T21:20:28.286Z,99.55
2018-11-23T21:22:56.907Z,99.32
2018-11-23T21:25:25.391Z,99.09
2018-11-23T21:27:54.153Z,98.77
2018-11-23T21:30:23.919Z,98.82
2018-11-23T21:32:53.740Z,98.84
2018-11-23T21:35:23.628Z,98.63
2018-11-23T21:37:52.313Z,98.86
2018-11-23T21:40:21.103Z,98.34
2018-11-23T21:42:49.854Z,98.18
2018-11-23T21:45:19.904Z,98.02
2018-11-23T21:47:48.592Z,98.07
2018-11-23T21:50:25.484Z,98.03
2018-11-23T21:52:51.537Z,98.10
2018-11-23T21:55:21.738Z,97.84
2018-11-23T21:57:50.436Z,97.75
2018-11-23T22:00:19.055Z,97.83
2018-11-23T22:02:48.008Z,97.76
2018-11-23T22:05:16.773Z,97.76
2018-11-23T22:07:45.553Z,97.69
2018-11-23T22:10:17.367Z,97.60
2018-11-23T22:12:47.217Z,97.01
2018-11-23T22:15:30.822Z,96.89
2018-11-23T22:17:59.599Z,97.07
2018-11-23T22:20:28.206Z,96.37
2018-11-23T22:22:56.834Z,96.66
2018-11-23T22:25:25.442Z,96.62
2018-11-23T22:27:54.148Z,96.69
2018-11-23T22:30:24.355Z,96.58
2018-11-23T22:32:52.965Z,95.90
2018-11-23T22:35:21.780Z,96.64
2018-11-23T22:37:50.441Z,97.02
2018-11-23T22:40:20.094Z,96.26
2018-11-23T22:42:49.817Z,96.47
2018-11-23T22:45:18.623Z,96.63
2018-11-23T22:47:47.197Z,96.10
2018-11-23T22:50:17.367Z,96.46
2018-11-23T22:52:47.719Z,96.29
2018-11-23T22:55:16.336Z,96.04
2018-11-23T22:57:44.968Z,96.85
2018-11-23T23:00:26.403Z,96.50
2018-11-23T23:02:55.248Z,96.16
2018-11-23T23:05:24.511Z,96.37
2018-11-23T23:07:53.061Z,96.34
2018-11-23T23:10:21.670Z,96.50
2018-11-23T23:12:50.884Z,96.51
2018-11-23T23:15:19.728Z,96.50
2018-11-23T23:17:48.273Z,96.59
2018-11-23T23:20:21.172Z,96.80
2018-11-23T23:22:51.746Z,96.70
2018-11-23T23:25:20.259Z,96.69
2018-11-23T23:27:48.881Z,96.67
2018-11-23T23:30:18.466Z,96.66
2018-11-23T23:32:48.034Z,96.66
2018-11-23T23:35:17.369Z,96.45
2018-11-23T23:37:46.236Z,96.66
2018-11-23T23:40:17.668Z,96.67
2018-11-23T23:42:46.920Z,96.30
2018-11-23T23:45:16.943Z,97.11
2018-11-23T23:47:45.640Z,96.22
2018-11-23T23:50:16.835Z,96.14
2018-11-23T23:52:45.619Z,96.26
2018-11-23T23:55:14.598Z,96.04
2018-11-23T23:57:44.465Z,96.07
